sensor_id;sensor_type;location;lat;lon;timestamp;P1;durP1;ratioP1;P2;durP2;ratioP2
24102;SDS011;12278;53.058;9.028;2023-03-21T00:07:35;44.60;;;25.87;;
24102;SDS011;12278;53.058;9.028;2023-03-21T00:11:36;37.40;;;26.27;;
24102;SDS011;12278;53.058;9.028;2023-03-21T00:15:36;35.60;;;24.27;;
24102;SDS011;12278;53.058;9.028;2023-03-21T00:19:49;35.57;;;25.33;;
24102;SDS011;12278;53.058;9.028;2023-03-21T00:23:54;36.87;;;25.17;;
24102;SDS011;12278;53.058;9.028;2023-03-21T00:27:55;33.47;;;24.40;;
24102;SDS011;12278;53.058;9.028;2023-03-21T00:31:55;36.60;;;23.97;;
24102;SDS011;12278;53.058;9.028;2023-03-21T00:35:56;33.60;;;22.77;;
24102;SDS011;12278;53.058;9.028;2023-03-21T00:39:56;36.90;;;22.93;;
24102;SDS011;12278;53.058;9.028;2023-03-21T00:48:01;33.57;;;23.73;;
24102;SDS011;12278;53.058;9.028;2023-03-21T00:52:03;29.47;;;21.73;;
24102;SDS011;12278;53.058;9.028;2023-03-21T00:56:05;31.47;;;21.93;;
24102;SDS011;12278;53.058;9.028;2023-03-21T01:00:07;32.33;;;21.23;;
24102;SDS011;12278;53.058;9.028;2023-03-21T01:04:10;29.37;;;20.70;;
24102;SDS011;12278;53.058;9.028;2023-03-21T01:08:14;33.30;;;23.13;;
24102;SDS011;12278;53.058;9.028;2023-03-21T01:12:15;31.03;;;21.60;;
24102;SDS011;12278;53.058;9.028;2023-03-21T01:16:18;29.73;;;22.03;;
24102;SDS011;12278;53.058;9.028;2023-03-21T01:20:19;30.03;;;21.63;;
24102;SDS011;12278;53.058;9.028;2023-03-21T01:24:20;33.70;;;22.83;;
24102;SDS011;12278;53.058;9.028;2023-03-21T01:28:21;31.13;;;23.27;;
24102;SDS011;12278;53.058;9.028;2023-03-21T01:32:26;33.25;;;21.77;;
24102;SDS011;12278;53.058;9.028;2023-03-21T01:36:27;31.60;;;22.27;;
24102;SDS011;12278;53.058;9.028;2023-03-21T01:40:28;34.23;;;23.07;;
24102;SDS011;12278;53.058;9.028;2023-03-21T01:44:29;34.87;;;24.17;;
24102;SDS011;12278;53.058;9.028;2023-03-21T01:48:30;32.17;;;22.97;;
24102;SDS011;12278;53.058;9.028;2023-03-21T01:52:36;33.80;;;21.57;;
24102;SDS011;12278;53.058;9.028;2023-03-21T01:56:38;35.97;;;24.40;;
24102;SDS011;12278;53.058;9.028;2023-03-21T02:00:40;33.77;;;25.00;;
24102;SDS011;12278;53.058;9.028;2023-03-21T02:04:45;36.83;;;25.57;;
24102;SDS011;12278;53.058;9.028;2023-03-21T03:33:00;52.00;;;29.17;;
24102;SDS011;12278;53.058;9.028;2023-03-21T03:37:04;50.33;;;27.48;;
24102;SDS011;12278;53.058;9.028;2023-03-21T03:41:16;42.97;;;26.55;;
24102;SDS011;12278;53.058;9.028;2023-03-21T03:45:25;41.80;;;26.83;;
24102;SDS011;12278;53.058;9.028;2023-03-21T03:49:36;39.33;;;24.75;;
24102;SDS011;12278;53.058;9.028;2023-03-21T03:53:54;42.40;;;25.35;;
24102;SDS011;12278;53.058;9.028;2023-03-21T03:57:59;40.53;;;25.52;;
24102;SDS011;12278;53.058;9.028;2023-03-21T04:02:00;45.33;;;26.40;;
24102;SDS011;12278;53.058;9.028;2023-03-21T04:06:02;50.90;;;28.05;;
24102;SDS011;12278;53.058;9.028;2023-03-21T04:10:03;44.22;;;26.20;;
24102;SDS011;12278;53.058;9.028;2023-03-21T04:14:04;44.65;;;27.30;;
24102;SDS011;12278;53.058;9.028;2023-03-21T04:18:05;50.85;;;27.48;;
24102;SDS011;12278;53.058;9.028;2023-03-21T04:22:05;48.87;;;27.37;;
24102;SDS011;12278;53.058;9.028;2023-03-21T04:26:06;44.37;;;26.43;;
24102;SDS011;12278;53.058;9.028;2023-03-21T04:30:07;45.72;;;27.60;;
24102;SDS011;12278;53.058;9.028;2023-03-21T04:34:11;54.35;;;27.02;;
24102;SDS011;12278;53.058;9.028;2023-03-21T04:38:11;46.80;;;26.83;;
24102;SDS011;12278;53.058;9.028;2023-03-21T04:42:13;48.70;;;27.65;;
24102;SDS011;12278;53.058;9.028;2023-03-21T04:46:15;47.58;;;27.90;;
24102;SDS011;12278;53.058;9.028;2023-03-21T04:50:15;53.40;;;28.30;;
24102;SDS011;12278;53.058;9.028;2023-03-21T04:54:16;48.80;;;27.05;;
24102;SDS011;12278;53.058;9.028;2023-03-21T04:58:17;43.13;;;27.13;;
24102;SDS011;12278;53.058;9.028;2023-03-21T05:02:19;46.38;;;26.65;;
24102;SDS011;12278;53.058;9.028;2023-03-21T05:06:20;40.97;;;26.48;;
24102;SDS011;12278;53.058;9.028;2023-03-21T05:10:20;52.05;;;25.80;;
24102;SDS011;12278;53.058;9.028;2023-03-21T05:14:22;44.35;;;25.10;;
24102;SDS011;12278;53.058;9.028;2023-03-21T05:18:24;40.38;;;24.20;;
24102;SDS011;12278;53.058;9.028;2023-03-21T05:22:25;41.42;;;24.88;;
24102;SDS011;12278;53.058;9.028;2023-03-21T05:26:28;39.97;;;24.70;;
24102;SDS011;12278;53.058;9.028;2023-03-21T05:30:29;45.22;;;24.42;;
24102;SDS011;12278;53.058;9.028;2023-03-21T05:34:30;38.70;;;23.30;;
24102;SDS011;12278;53.058;9.028;2023-03-21T05:38:36;43.00;;;26.83;;
24102;SDS011;12278;53.058;9.028;2023-03-21T05:42:41;42.47;;;25.35;;
24102;SDS011;12278;53.058;9.028;2023-03-21T05:46:44;35.40;;;24.08;;
24102;SDS011;12278;53.058;9.028;2023-03-21T05:50:52;44.55;;;25.80;;
24102;SDS011;12278;53.058;9.028;2023-03-21T05:54:54;43.88;;;25.92;;
24102;SDS011;12278;53.058;9.028;2023-03-21T05:58:54;42.72;;;25.05;;
24102;SDS011;12278;53.058;9.028;2023-03-21T06:02:56;40.53;;;25.58;;
24102;SDS011;12278;53.058;9.028;2023-03-21T06:06:57;40.45;;;23.77;;
24102;SDS011;12278;53.058;9.028;2023-03-21T06:10:57;47.88;;;25.15;;
24102;SDS011;12278;53.058;9.028;2023-03-21T06:14:58;41.83;;;25.45;;
24102;SDS011;12278;53.058;9.028;2023-03-21T06:19:00;39.95;;;24.50;;
24102;SDS011;12278;53.058;9.028;2023-03-21T06:23:00;39.78;;;25.58;;
24102;SDS011;12278;53.058;9.028;2023-03-21T06:27:01;38.47;;;23.20;;
24102;SDS011;12278;53.058;9.028;2023-03-21T06:31:02;38.15;;;24.52;;
24102;SDS011;12278;53.058;9.028;2023-03-21T06:35:02;38.38;;;24.40;;
24102;SDS011;12278;53.058;9.028;2023-03-21T06:39:04;39.47;;;24.23;;
24102;SDS011;12278;53.058;9.028;2023-03-21T06:43:07;41.75;;;25.63;;
24102;SDS011;12278;53.058;9.028;2023-03-21T06:47:07;46.17;;;24.10;;
24102;SDS011;12278;53.058;9.028;2023-03-21T06:51:09;40.55;;;24.85;;
24102;SDS011;12278;53.058;9.028;2023-03-21T06:55:13;38.25;;;24.63;;
24102;SDS011;12278;53.058;9.028;2023-03-21T06:59:14;37.40;;;23.65;;
24102;SDS011;12278;53.058;9.028;2023-03-21T07:03:15;40.60;;;23.75;;
24102;SDS011;12278;53.058;9.028;2023-03-21T07:07:16;37.03;;;21.63;;
24102;SDS011;12278;53.058;9.028;2023-03-21T07:11:16;40.45;;;23.45;;
24102;SDS011;12278;53.058;9.028;2023-03-21T07:15:17;39.55;;;25.08;;
24102;SDS011;12278;53.058;9.028;2023-03-21T07:19:18;38.92;;;23.73;;
24102;SDS011;12278;53.058;9.028;2023-03-21T07:23:20;40.90;;;24.83;;
24102;SDS011;12278;53.058;9.028;2023-03-21T07:27:22;41.28;;;24.58;;
24102;SDS011;12278;53.058;9.028;2023-03-21T07:31:23;38.20;;;24.95;;
24102;SDS011;12278;53.058;9.028;2023-03-21T07:35:25;46.28;;;25.40;;
24102;SDS011;12278;53.058;9.028;2023-03-21T07:39:26;39.22;;;25.05;;
24102;SDS011;12278;53.058;9.028;2023-03-21T07:43:27;38.85;;;23.35;;
24102;SDS011;12278;53.058;9.028;2023-03-21T07:47:28;35.60;;;22.05;;
24102;SDS011;12278;53.058;9.028;2023-03-21T07:51:28;35.55;;;22.67;;
24102;SDS011;12278;53.058;9.028;2023-03-21T07:55:29;40.78;;;24.90;;
24102;SDS011;12278;53.058;9.028;2023-03-21T07:59:33;35.35;;;22.58;;
24102;SDS011;12278;53.058;9.028;2023-03-21T08:03:34;39.00;;;24.20;;
24102;SDS011;12278;53.058;9.028;2023-03-21T08:07:35;40.22;;;23.60;;
24102;SDS011;12278;53.058;9.028;2023-03-21T08:11:35;35.90;;;24.20;;
24102;SDS011;12278;53.058;9.028;2023-03-21T08:15:36;41.30;;;25.83;;
24102;SDS011;12278;53.058;9.028;2023-03-21T08:19:38;48.50;;;26.42;;
24102;SDS011;12278;53.058;9.028;2023-03-21T08:23:39;37.65;;;25.23;;
24102;SDS011;12278;53.058;9.028;2023-03-21T08:27:40;40.53;;;23.10;;
24102;SDS011;12278;53.058;9.028;2023-03-21T08:31:42;42.08;;;25.73;;
24102;SDS011;12278;53.058;9.028;2023-03-21T08:35:42;47.78;;;27.40;;
24102;SDS011;12278;53.058;9.028;2023-03-21T08:39:43;48.38;;;27.70;;
24102;SDS011;12278;53.058;9.028;2023-03-21T08:43:44;46.80;;;28.95;;
24102;SDS011;12278;53.058;9.028;2023-03-21T08:47:45;47.97;;;28.98;;
24102;SDS011;12278;53.058;9.028;2023-03-21T08:51:46;50.78;;;32.10;;
24102;SDS011;12278;53.058;9.028;2023-03-21T08:55:48;49.53;;;29.27;;
24102;SDS011;12278;53.058;9.028;2023-03-21T08:59:48;51.13;;;28.77;;
24102;SDS011;12278;53.058;9.028;2023-03-21T09:03:49;43.10;;;26.80;;
24102;SDS011;12278;53.058;9.028;2023-03-21T09:07:50;49.28;;;28.38;;
24102;SDS011;12278;53.058;9.028;2023-03-21T09:11:51;45.05;;;27.25;;
24102;SDS011;12278;53.058;9.028;2023-03-21T09:15:53;43.03;;;27.27;;
24102;SDS011;12278;53.058;9.028;2023-03-21T09:19:54;43.70;;;26.38;;
24102;SDS011;12278;53.058;9.028;2023-03-21T09:23:56;43.28;;;25.50;;
24102;SDS011;12278;53.058;9.028;2023-03-21T09:27:59;40.95;;;25.67;;
24102;SDS011;12278;53.058;9.028;2023-03-21T09:32:01;44.17;;;24.83;;
24102;SDS011;12278;53.058;9.028;2023-03-21T09:36:03;45.10;;;24.50;;
24102;SDS011;12278;53.058;9.028;2023-03-21T09:40:05;42.35;;;25.85;;
24102;SDS011;12278;53.058;9.028;2023-03-21T09:57:29;42.15;;;23.15;;
24102;SDS011;12278;53.058;9.028;2023-03-21T10:01:35;38.30;;;21.70;;
24102;SDS011;12278;53.058;9.028;2023-03-21T10:05:40;24.77;;;15.82;;
24102;SDS011;12278;53.058;9.028;2023-03-21T10:09:44;34.47;;;20.77;;
24102;SDS011;12278;53.058;9.028;2023-03-21T10:18:06;30.42;;;19.98;;
24102;SDS011;12278;53.058;9.028;2023-03-21T10:22:12;30.67;;;21.65;;
24102;SDS011;12278;53.058;9.028;2023-03-21T10:26:12;33.03;;;21.30;;
24102;SDS011;12278;53.058;9.028;2023-03-21T10:30:56;32.60;;;21.75;;
24102;SDS011;12278;53.058;9.028;2023-03-21T10:34:47;40.95;;;21.60;;
24102;SDS011;12278;53.058;9.028;2023-03-21T10:43:34;33.53;;;21.77;;
24102;SDS011;12278;53.058;9.028;2023-03-21T10:47:36;29.23;;;19.50;;
24102;SDS011;12278;53.058;9.028;2023-03-21T10:51:37;25.25;;;17.10;;
24102;SDS011;12278;53.058;9.028;2023-03-21T10:55:39;23.52;;;17.10;;
24102;SDS011;12278;53.058;9.028;2023-03-21T10:59:54;25.98;;;18.60;;
24102;SDS011;12278;53.058;9.028;2023-03-21T11:03:59;22.08;;;16.33;;
24102;SDS011;12278;53.058;9.028;2023-03-21T11:08:11;22.92;;;15.90;;
24102;SDS011;12278;53.058;9.028;2023-03-21T11:12:18;21.70;;;16.85;;
24102;SDS011;12278;53.058;9.028;2023-03-21T11:16:30;25.30;;;16.45;;
24102;SDS011;12278;53.058;9.028;2023-03-21T11:20:35;23.45;;;15.70;;
24102;SDS011;12278;53.058;9.028;2023-03-21T11:24:46;22.80;;;16.20;;
24102;SDS011;12278;53.058;9.028;2023-03-21T11:28:50;20.48;;;14.45;;
24102;SDS011;12278;53.058;9.028;2023-03-21T11:32:55;19.67;;;15.32;;
24102;SDS011;12278;53.058;9.028;2023-03-21T11:36:57;21.30;;;14.80;;
24102;SDS011;12278;53.058;9.028;2023-03-21T11:41:00;20.02;;;15.15;;
24102;SDS011;12278;53.058;9.028;2023-03-21T11:49:16;21.25;;;14.80;;
24102;SDS011;12278;53.058;9.028;2023-03-21T11:57:42;18.63;;;14.65;;
24102;SDS011;12278;53.058;9.028;2023-03-21T12:01:56;23.25;;;16.00;;
24102;SDS011;12278;53.058;9.028;2023-03-21T12:06:18;17.63;;;15.32;;
24102;SDS011;12278;53.058;9.028;2023-03-21T12:10:30;22.65;;;16.05;;
24102;SDS011;12278;53.058;9.028;2023-03-21T12:14:42;23.77;;;16.38;;
24102;SDS011;12278;53.058;9.028;2023-03-21T12:23:55;23.05;;;15.70;;
24102;SDS011;12278;53.058;9.028;2023-03-21T12:37:07;21.40;;;15.98;;
24102;SDS011;12278;53.058;9.028;2023-03-21T12:41:33;24.25;;;15.80;;
24102;SDS011;12278;53.058;9.028;2023-03-21T12:46:02;24.02;;;16.25;;
24102;SDS011;12278;53.058;9.028;2023-03-21T12:50:17;24.35;;;16.92;;
24102;SDS011;12278;53.058;9.028;2023-03-21T12:58:50;23.30;;;17.15;;
24102;SDS011;12278;53.058;9.028;2023-03-21T13:02:57;26.17;;;16.77;;
24102;SDS011;12278;53.058;9.028;2023-03-21T13:07:02;19.80;;;15.52;;
24102;SDS011;12278;53.058;9.028;2023-03-21T13:11:09;22.33;;;15.85;;
24102;SDS011;12278;53.058;9.028;2023-03-21T13:23:37;19.48;;;15.57;;
24102;SDS011;12278;53.058;9.028;2023-03-21T13:27:38;19.52;;;13.90;;
24102;SDS011;12278;53.058;9.028;2023-03-21T13:31:46;21.88;;;15.73;;
24102;SDS011;12278;53.058;9.028;2023-03-21T13:35:57;20.60;;;15.80;;
24102;SDS011;12278;53.058;9.028;2023-03-21T13:40:05;18.77;;;14.23;;
24102;SDS011;12278;53.058;9.028;2023-03-21T13:44:22;15.25;;;13.20;;
24102;SDS011;12278;53.058;9.028;2023-03-21T13:48:26;19.42;;;13.77;;
24102;SDS011;12278;53.058;9.028;2023-03-21T13:52:29;19.88;;;13.68;;
24102;SDS011;12278;53.058;9.028;2023-03-21T13:56:46;16.73;;;12.10;;
24102;SDS011;12278;53.058;9.028;2023-03-21T14:05:16;16.70;;;13.15;;
24102;SDS011;12278;53.058;9.028;2023-03-21T14:09:27;14.52;;;11.88;;
24102;SDS011;12278;53.058;9.028;2023-03-21T14:13:35;15.93;;;12.07;;
24102;SDS011;12278;53.058;9.028;2023-03-21T14:17:35;19.25;;;13.55;;
24102;SDS011;12278;53.058;9.028;2023-03-21T14:21:36;15.10;;;12.85;;
24102;SDS011;12278;53.058;9.028;2023-03-21T14:25:44;15.23;;;12.52;;
24102;SDS011;12278;53.058;9.028;2023-03-21T14:29:47;19.08;;;12.85;;
24102;SDS011;12278;53.058;9.028;2023-03-21T14:33:54;17.20;;;13.18;;
24102;SDS011;12278;53.058;9.028;2023-03-21T14:38:00;14.65;;;12.85;;
24102;SDS011;12278;53.058;9.028;2023-03-21T14:42:09;14.23;;;11.32;;
24102;SDS011;12278;53.058;9.028;2023-03-21T14:46:12;16.83;;;13.13;;
24102;SDS011;12278;53.058;9.028;2023-03-21T14:50:13;19.35;;;13.18;;
24102;SDS011;12278;53.058;9.028;2023-03-21T14:54:14;15.27;;;13.10;;
24102;SDS011;12278;53.058;9.028;2023-03-21T14:58:16;17.48;;;13.70;;
24102;SDS011;12278;53.058;9.028;2023-03-21T15:02:22;20.33;;;13.93;;
24102;SDS011;12278;53.058;9.028;2023-03-21T15:06:27;16.20;;;14.35;;
24102;SDS011;12278;53.058;9.028;2023-03-21T15:10:28;18.23;;;15.52;;
24102;SDS011;12278;53.058;9.028;2023-03-21T15:14:31;15.63;;;13.27;;
24102;SDS011;12278;53.058;9.028;2023-03-21T15:18:35;18.25;;;14.82;;
24102;SDS011;12278;53.058;9.028;2023-03-21T15:22:38;16.70;;;13.80;;
24102;SDS011;12278;53.058;9.028;2023-03-21T15:26:45;16.80;;;13.32;;
24102;SDS011;12278;53.058;9.028;2023-03-21T15:30:50;14.30;;;12.65;;
24102;SDS011;12278;53.058;9.028;2023-03-21T15:34:52;15.70;;;13.23;;
24102;SDS011;12278;53.058;9.028;2023-03-21T15:38:55;16.98;;;14.23;;
24102;SDS011;12278;53.058;9.028;2023-03-21T15:47:28;15.15;;;13.38;;
24102;SDS011;12278;53.058;9.028;2023-03-21T15:55:46;17.13;;;13.60;;
24102;SDS011;12278;53.058;9.028;2023-03-21T15:59:54;16.33;;;13.18;;
24102;SDS011;12278;53.058;9.028;2023-03-21T16:04:01;16.52;;;12.82;;
24102;SDS011;12278;53.058;9.028;2023-03-21T16:12:17;16.13;;;13.57;;
24102;SDS011;12278;53.058;9.028;2023-03-21T16:16:19;14.68;;;12.05;;
24102;SDS011;12278;53.058;9.028;2023-03-21T16:20:23;13.73;;;12.02;;
24102;SDS011;12278;53.058;9.028;2023-03-21T16:24:28;14.80;;;12.60;;
24102;SDS011;12278;53.058;9.028;2023-03-21T16:28:28;17.00;;;12.57;;
24102;SDS011;12278;53.058;9.028;2023-03-21T16:32:29;15.65;;;13.43;;
24102;SDS011;12278;53.058;9.028;2023-03-21T16:36:31;16.23;;;13.35;;
24102;SDS011;12278;53.058;9.028;2023-03-21T16:40:36;16.67;;;13.60;;
24102;SDS011;12278;53.058;9.028;2023-03-21T16:44:40;17.58;;;13.07;;
24102;SDS011;12278;53.058;9.028;2023-03-21T16:48:42;19.08;;;15.32;;
24102;SDS011;12278;53.058;9.028;2023-03-21T16:52:44;18.38;;;13.27;;
24102;SDS011;12278;53.058;9.028;2023-03-21T16:56:48;14.05;;;12.07;;
24102;SDS011;12278;53.058;9.028;2023-03-21T17:00:51;18.02;;;13.93;;
24102;SDS011;12278;53.058;9.028;2023-03-21T17:04:52;15.40;;;13.57;;
24102;SDS011;12278;53.058;9.028;2023-03-21T17:08:53;18.88;;;13.32;;
24102;SDS011;12278;53.058;9.028;2023-03-21T17:12:55;17.88;;;12.68;;
24102;SDS011;12278;53.058;9.028;2023-03-21T17:16:55;16.80;;;11.48;;
24102;SDS011;12278;53.058;9.028;2023-03-21T17:21:00;15.23;;;11.00;;
24102;SDS011;12278;53.058;9.028;2023-03-21T17:25:01;12.75;;;10.70;;
24102;SDS011;12278;53.058;9.028;2023-03-21T17:29:02;16.08;;;11.05;;
24102;SDS011;12278;53.058;9.028;2023-03-21T17:33:03;14.20;;;10.55;;
24102;SDS011;12278;53.058;9.028;2023-03-21T17:37:04;13.65;;;10.23;;
24102;SDS011;12278;53.058;9.028;2023-03-21T17:41:10;13.02;;;9.70;;
24102;SDS011;12278;53.058;9.028;2023-03-21T17:45:12;14.15;;;9.68;;
24102;SDS011;12278;53.058;9.028;2023-03-21T17:49:14;10.57;;;9.48;;
24102;SDS011;12278;53.058;9.028;2023-03-21T17:53:15;14.20;;;9.63;;
24102;SDS011;12278;53.058;9.028;2023-03-21T17:57:16;12.02;;;9.73;;
24102;SDS011;12278;53.058;9.028;2023-03-21T18:01:16;16.15;;;9.55;;
24102;SDS011;12278;53.058;9.028;2023-03-21T18:05:17;12.52;;;9.23;;
24102;SDS011;12278;53.058;9.028;2023-03-21T18:09:20;12.70;;;9.32;;
24102;SDS011;12278;53.058;9.028;2023-03-21T18:13:21;10.95;;;8.77;;
24102;SDS011;12278;53.058;9.028;2023-03-21T18:17:24;13.07;;;8.93;;
24102;SDS011;12278;53.058;9.028;2023-03-21T18:21:25;13.82;;;9.27;;
24102;SDS011;12278;53.058;9.028;2023-03-21T18:25:25;12.95;;;10.07;;
24102;SDS011;12278;53.058;9.028;2023-03-21T18:29:26;12.35;;;9.57;;
24102;SDS011;12278;53.058;9.028;2023-03-21T18:33:28;12.48;;;9.60;;
24102;SDS011;12278;53.058;9.028;2023-03-21T18:37:28;10.93;;;7.60;;
24102;SDS011;12278;53.058;9.028;2023-03-21T18:41:32;11.32;;;8.30;;
24102;SDS011;12278;53.058;9.028;2023-03-21T18:45:34;11.60;;;8.80;;
24102;SDS011;12278;53.058;9.028;2023-03-21T18:49:34;11.23;;;8.88;;
24102;SDS011;12278;53.058;9.028;2023-03-21T18:53:35;8.65;;;6.93;;
24102;SDS011;12278;53.058;9.028;2023-03-21T18:57:36;9.93;;;6.93;;
24102;SDS011;12278;53.058;9.028;2023-03-21T19:01:38;10.63;;;7.65;;
24102;SDS011;12278;53.058;9.028;2023-03-21T19:05:39;10.10;;;7.45;;
24102;SDS011;12278;53.058;9.028;2023-03-21T19:09:40;8.75;;;6.50;;
24102;SDS011;12278;53.058;9.028;2023-03-21T19:13:40;8.20;;;6.75;;
24102;SDS011;12278;53.058;9.028;2023-03-21T19:17:41;9.25;;;6.70;;
24102;SDS011;12278;53.058;9.028;2023-03-21T19:21:44;12.73;;;7.30;;
24102;SDS011;12278;53.058;9.028;2023-03-21T19:25:50;10.63;;;7.07;;
24102;SDS011;12278;53.058;9.028;2023-03-21T19:29:51;10.50;;;6.07;;
24102;SDS011;12278;53.058;9.028;2023-03-21T19:33:52;11.05;;;6.25;;
24102;SDS011;12278;53.058;9.028;2023-03-21T19:37:53;7.18;;;5.45;;
24102;SDS011;12278;53.058;9.028;2023-03-21T19:41:53;7.78;;;6.07;;
24102;SDS011;12278;53.058;9.028;2023-03-21T19:45:57;8.52;;;6.07;;
24102;SDS011;12278;53.058;9.028;2023-03-21T19:49:59;7.75;;;5.65;;
24102;SDS011;12278;53.058;9.028;2023-03-21T19:54:01;8.65;;;6.32;;
24102;SDS011;12278;53.058;9.028;2023-03-21T19:58:04;6.28;;;5.35;;
24102;SDS011;12278;53.058;9.028;2023-03-21T20:02:06;7.60;;;6.13;;
24102;SDS011;12278;53.058;9.028;2023-03-21T20:06:07;7.40;;;6.00;;
24102;SDS011;12278;53.058;9.028;2023-03-21T20:10:10;8.18;;;6.07;;
24102;SDS011;12278;53.058;9.028;2023-03-21T20:14:10;9.15;;;6.13;;
24102;SDS011;12278;53.058;9.028;2023-03-21T20:18:11;6.97;;;5.35;;
24102;SDS011;12278;53.058;9.028;2023-03-21T20:22:11;8.95;;;6.22;;
24102;SDS011;12278;53.058;9.028;2023-03-21T20:26:19;7.70;;;5.43;;
24102;SDS011;12278;53.058;9.028;2023-03-21T20:30:19;8.32;;;6.63;;
24102;SDS011;12278;53.058;9.028;2023-03-21T20:34:20;7.82;;;5.85;;
24102;SDS011;12278;53.058;9.028;2023-03-21T20:38:21;6.95;;;5.65;;
24102;SDS011;12278;53.058;9.028;2023-03-21T20:42:22;7.07;;;6.10;;
24102;SDS011;12278;53.058;9.028;2023-03-21T20:46:22;9.27;;;5.97;;
24102;SDS011;12278;53.058;9.028;2023-03-21T20:50:23;6.68;;;6.00;;
24102;SDS011;12278;53.058;9.028;2023-03-21T20:54:24;10.00;;;6.20;;
24102;SDS011;12278;53.058;9.028;2023-03-21T20:58:25;7.00;;;5.53;;
24102;SDS011;12278;53.058;9.028;2023-03-21T21:02:29;7.30;;;5.40;;
24102;SDS011;12278;53.058;9.028;2023-03-21T21:06:31;8.23;;;6.07;;
24102;SDS011;12278;53.058;9.028;2023-03-21T21:10:33;10.07;;;5.65;;
24102;SDS011;12278;53.058;9.028;2023-03-21T21:14:36;8.50;;;5.82;;
24102;SDS011;12278;53.058;9.028;2023-03-21T21:18:37;7.20;;;5.75;;
24102;SDS011;12278;53.058;9.028;2023-03-21T21:22:41;8.60;;;6.80;;
24102;SDS011;12278;53.058;9.028;2023-03-21T21:26:46;6.97;;;6.00;;
24102;SDS011;12278;53.058;9.028;2023-03-21T21:30:46;8.02;;;6.10;;
24102;SDS011;12278;53.058;9.028;2023-03-21T21:34:47;7.85;;;6.05;;
24102;SDS011;12278;53.058;9.028;2023-03-21T21:38:48;7.60;;;5.90;;
24102;SDS011;12278;53.058;9.028;2023-03-21T21:42:49;7.05;;;6.05;;
24102;SDS011;12278;53.058;9.028;2023-03-21T21:46:50;9.15;;;6.05;;
24102;SDS011;12278;53.058;9.028;2023-03-21T21:50:51;6.57;;;5.93;;
24102;SDS011;12278;53.058;9.028;2023-03-21T21:54:53;7.88;;;6.10;;
24102;SDS011;12278;53.058;9.028;2023-03-21T21:58:53;7.05;;;6.25;;
24102;SDS011;12278;53.058;9.028;2023-03-21T22:02:55;10.15;;;7.07;;
24102;SDS011;12278;53.058;9.028;2023-03-21T22:06:56;10.27;;;5.72;;
24102;SDS011;12278;53.058;9.028;2023-03-21T22:10:58;9.00;;;6.38;;
24102;SDS011;12278;53.058;9.028;2023-03-21T22:14:59;8.50;;;6.32;;
24102;SDS011;12278;53.058;9.028;2023-03-21T22:19:00;8.32;;;6.82;;
24102;SDS011;12278;53.058;9.028;2023-03-21T22:23:01;11.63;;;7.30;;
24102;SDS011;12278;53.058;9.028;2023-03-21T22:27:02;8.70;;;7.75;;
24102;SDS011;12278;53.058;9.028;2023-03-21T22:31:17;8.98;;;7.20;;
24102;SDS011;12278;53.058;9.028;2023-03-21T22:35:18;10.30;;;7.50;;
24102;SDS011;12278;53.058;9.028;2023-03-21T22:39:20;11.43;;;8.07;;
24102;SDS011;12278;53.058;9.028;2023-03-21T22:43:25;9.50;;;7.68;;
24102;SDS011;12278;53.058;9.028;2023-03-21T22:47:26;10.07;;;7.90;;
24102;SDS011;12278;53.058;9.028;2023-03-21T22:51:26;12.73;;;9.20;;
24102;SDS011;12278;53.058;9.028;2023-03-21T22:55:27;10.65;;;9.55;;
24102;SDS011;12278;53.058;9.028;2023-03-21T22:59:28;10.95;;;8.88;;
24102;SDS011;12278;53.058;9.028;2023-03-21T23:03:30;9.57;;;8.52;;
24102;SDS011;12278;53.058;9.028;2023-03-21T23:07:30;13.80;;;10.02;;
24102;SDS011;12278;53.058;9.028;2023-03-21T23:11:31;12.32;;;9.80;;
24102;SDS011;12278;53.058;9.028;2023-03-21T23:15:32;12.43;;;9.68;;
24102;SDS011;12278;53.058;9.028;2023-03-21T23:19:33;14.50;;;11.00;;
24102;SDS011;12278;53.058;9.028;2023-03-21T23:23:33;13.38;;;9.60;;
24102;SDS011;12278;53.058;9.028;2023-03-21T23:27:37;14.20;;;10.20;;
24102;SDS011;12278;53.058;9.028;2023-03-21T23:31:37;11.43;;;9.93;;
24102;SDS011;12278;53.058;9.028;2023-03-21T23:35:38;10.38;;;8.80;;
24102;SDS011;12278;53.058;9.028;2023-03-21T23:39:39;11.82;;;9.65;;
24102;SDS011;12278;53.058;9.028;2023-03-21T23:43:40;12.82;;;10.18;;
24102;SDS011;12278;53.058;9.028;2023-03-21T23:47:42;15.13;;;8.75;;
24102;SDS011;12278;53.058;9.028;2023-03-21T23:51:43;12.60;;;10.63;;
24102;SDS011;12278;53.058;9.028;2023-03-21T23:55:44;11.77;;;10.48;;
24102;SDS011;12278;53.058;9.028;2023-03-21T23:59:52;13.13;;;9.35;;
